Time;durP1;ratioP1;P1;durP2;ratioP2;P2;SDS_P1;SDS_P2;PMS_P1;PMS_P2;Temp;Humidity;BMP_temperature;BMP_pressure;BME280_temperature;BME280_humidity;BME280_pressure;Samples;Min_cycle;Max_cycle;Signal;HPM_P1;HPM_P2
2024/01/31 00:00:20;;;;;;;7.03;1.60;;;7.90;99.90;;;;;;5062388;28;20421;-84
2024/01/31 00:02:46;;;;;;;5.18;1.52;;;7.90;99.90;;;;;;5060907;28;20031;-84
2024/01/31 00:05:15;;;;;;;5.32;1.67;;;7.90;99.90;;;;;;5047245;28;20035;-83
2024/01/31 00:07:43;;;;;;;3.85;1.30;;;7.90;99.90;;;;;;5085924;28;20038;-83
2024/01/31 00:10:09;;;;;;;6.22;1.90;;;7.90;99.90;;;;;;5102650;28;20008;-83
2024/01/31 00:12:35;;;;;;;4.90;1.30;;;7.90;99.90;;;;;;5085981;28;20016;-83
2024/01/31 00:15:00;;;;;;;5.32;1.55;;;7.90;99.90;;;;;;5101396;28;20051;-83
2024/01/31 00:17:26;;;;;;;2.58;1.33;;;7.80;99.90;;;;;;5075297;28;20032;-83
2024/01/31 00:19:53;;;;;;;3.65;1.52;;;7.80;99.90;;;;;;5062189;28;20056;-83
2024/01/31 00:22:18;;;;;;;3.97;1.58;;;7.80;99.90;;;;;;5096456;28;20077;-83
2024/01/31 00:24:44;;;;;;;4.18;1.40;;;7.80;99.90;;;;;;5078045;28;20035;-84
2024/01/31 00:27:10;;;;;;;6.15;1.73;;;7.80;99.90;;;;;;5077596;28;20087;-83
2024/01/31 00:29:36;;;;;;;5.50;1.98;;;7.80;99.90;;;;;;5078435;28;20024;-83
2024/01/31 00:32:02;;;;;;;3.63;1.83;;;7.80;99.90;;;;;;5044511;28;20035;-83
2024/01/31 00:34:27;;;;;;;4.40;2.22;;;7.80;99.90;;;;;;5061247;28;20028;-83
2024/01/31 00:36:53;;;;;;;5.38;1.60;;;7.80;99.90;;;;;;5044755;28;20447;-84
2024/01/31 00:39:20;;;;;;;4.65;1.70;;;7.80;99.90;;;;;;5061087;28;20028;-83
2024/01/31 00:41:47;;;;;;;5.63;2.33;;;7.80;99.90;;;;;;5044894;28;20040;-83
2024/01/31 00:44:13;;;;;;;3.75;1.55;;;7.70;99.90;;;;;;5044268;28;20051;-83
2024/01/31 00:46:42;;;;;;;5.53;2.05;;;7.70;99.90;;;;;;5077717;28;20056;-83
2024/01/31 00:49:08;;;;;;;6.68;2.40;;;7.70;99.90;;;;;;5044475;28;20028;-83
2024/01/31 00:51:34;;;;;;;5.40;1.98;;;7.60;99.90;;;;;;5077155;28;20036;-83
2024/01/31 00:54:00;;;;;;;5.57;1.80;;;7.60;99.90;;;;;;5060484;28;20332;-83
2024/01/31 00:56:26;;;;;;;6.25;1.73;;;7.60;99.90;;;;;;5044037;28;20426;-83
2024/01/31 00:58:51;;;;;;;3.85;1.60;;;7.60;99.90;;;;;;5060457;28;20152;-83
2024/01/31 01:01:17;;;;;;;7.40;1.88;;;7.70;99.90;;;;;;5060304;28;20032;-83
2024/01/31 01:03:43;;;;;;;5.32;2.33;;;7.70;99.90;;;;;;5059969;28;20028;-83
2024/01/31 01:06:09;;;;;;;4.90;1.75;;;7.70;99.90;;;;;;5044136;28;20028;-83
2024/01/31 01:08:34;;;;;;;5.53;1.80;;;7.60;99.90;;;;;;5076999;28;20464;-83
2024/01/31 01:11:00;;;;;;;9.43;1.98;;;7.70;99.90;;;;;;5060420;28;20032;-83
2024/01/31 01:13:26;;;;;;;3.92;1.30;;;7.70;99.90;;;;;;5077091;28;20028;-83
2024/01/31 01:15:51;;;;;;;3.45;1.58;;;7.70;99.90;;;;;;5056842;28;20079;-82
2024/01/31 01:18:17;;;;;;;3.22;1.45;;;7.70;99.90;;;;;;5039832;28;20035;-83
2024/01/31 01:20:42;;;;;;;4.13;1.33;;;7.70;99.90;;;;;;5073492;28;20365;-83
2024/01/31 01:23:08;;;;;;;4.32;1.65;;;7.70;99.90;;;;;;5056394;28;20134;-83
2024/01/31 01:25:34;;;;;;;4.18;1.25;;;7.70;99.90;;;;;;5057147;28;20025;-83
2024/01/31 01:27:59;;;;;;;6.45;1.60;;;7.70;99.90;;;;;;5040098;28;20416;-82
2024/01/31 01:30:26;;;;;;;4.80;1.15;;;7.70;99.90;;;;;;5075385;28;20042;-83
2024/01/31 01:32:52;;;;;;;2.30;1.20;;;7.70;99.90;;;;;;5059143;28;20433;-83
2024/01/31 01:35:17;;;;;;;7.72;1.80;;;7.70;99.90;;;;;;5077259;28;20084;-82
2024/01/31 01:37:43;;;;;;;4.65;1.63;;;7.70;99.90;;;;;;5097924;28;20058;-82
2024/01/31 01:40:09;;;;;;;4.38;1.10;;;7.70;99.90;;;;;;5080110;28;20039;-82
2024/01/31 01:42:41;;;;;;;4.22;1.45;;;7.80;99.90;;;;;;5091238;28;20074;-83
2024/01/31 01:45:07;;;;;;;3.63;1.40;;;7.80;99.90;;;;;;5057359;28;20036;-83
2024/01/31 01:47:43;;;;;;;6.00;1.50;;;7.80;99.90;;;;;;5056400;28;20103;-83
2024/01/31 01:50:10;;;;;;;2.75;1.30;;;7.80;99.90;;;;;;5073400;28;20024;-83
2024/01/31 01:52:37;;;;;;;4.22;1.80;;;7.70;99.90;;;;;;5056287;28;20029;-82
2024/01/31 01:55:04;;;;;;;2.80;1.30;;;7.80;99.90;;;;;;5072902;28;20044;-83
2024/01/31 01:57:33;;;;;;;2.72;1.10;;;7.70;99.90;;;;;;5072878;28;20036;-83
2024/01/31 02:00:04;;;;;;;4.05;1.20;;;7.80;99.90;;;;;;5056233;28;20102;-82
2024/01/31 02:02:30;;;;;;;5.90;1.50;;;7.80;99.90;;;;;;5056540;28;20031;-83
2024/01/31 02:04:56;;;;;;;3.80;1.30;;;7.80;99.90;;;;;;5072918;28;20085;-82
2024/01/31 02:07:26;;;;;;;3.67;1.30;;;7.70;99.90;;;;;;5056241;28;20108;-83
2024/01/31 02:09:53;;;;;;;3.50;1.13;;;7.80;99.90;;;;;;5072766;28;20039;-83
2024/01/31 02:12:19;;;;;;;4.40;2.13;;;7.80;99.90;;;;;;5072820;28;20028;-83
2024/01/31 02:14:47;;;;;;;3.22;1.45;;;7.70;99.90;;;;;;5071260;28;20170;-83
2024/01/31 02:17:13;;;;;;;5.97;1.42;;;7.70;99.90;;;;;;5072464;28;20115;-83
2024/01/31 02:19:38;;;;;;;2.70;1.27;;;7.80;99.90;;;;;;5039694;28;20033;-83
2024/01/31 02:22:06;;;;;;;4.05;1.67;;;7.80;99.90;;;;;;5055763;28;20032;-83
2024/01/31 02:24:35;;;;;;;5.57;1.50;;;7.70;99.90;;;;;;5072378;28;20067;-83
2024/01/31 02:27:00;;;;;;;4.07;1.25;;;7.70;99.90;;;;;;5073166;28;20025;-83
2024/01/31 02:29:26;;;;;;;4.80;1.55;;;7.70;99.90;;;;;;5038850;28;20120;-83
2024/01/31 02:31:52;;;;;;;2.13;1.23;;;7.70;99.90;;;;;;5055538;28;20391;-83
2024/01/31 02:34:18;;;;;;;5.45;1.70;;;7.70;99.90;;;;;;5038582;28;20567;-83
2024/01/31 02:36:44;;;;;;;2.95;1.70;;;7.70;99.90;;;;;;5038875;28;20035;-83
2024/01/31 02:39:09;;;;;;;3.50;1.48;;;7.70;99.90;;;;;;5055332;28;20112;-83
2024/01/31 02:41:35;;;;;;;6.15;1.80;;;7.70;99.90;;;;;;5055560;28;20032;-83
2024/01/31 02:44:00;;;;;;;5.35;1.58;;;7.70;99.90;;;;;;5039174;28;20043;-81
2024/01/31 02:46:26;;;;;;;2.83;1.35;;;7.60;99.90;;;;;;5072520;28;20041;-83
2024/01/31 02:48:52;;;;;;;4.13;1.40;;;7.60;99.90;;;;;;5055671;28;20102;-83
2024/01/31 02:51:17;;;;;;;2.58;1.48;;;7.60;99.90;;;;;;5056156;28;20104;-83
2024/01/31 02:53:43;;;;;;;6.10;1.60;;;7.60;99.90;;;;;;5073555;28;20032;-83
2024/01/31 02:56:09;;;;;;;3.97;1.70;;;7.60;99.90;;;;;;5056933;28;20025;-83
2024/01/31 02:58:36;;;;;;;5.30;1.90;;;7.60;99.90;;;;;;5082754;28;20374;-82
2024/01/31 03:01:05;;;;;;;3.90;1.65;;;7.60;99.90;;;;;;5095258;28;20031;-79
2024/01/31 03:03:31;;;;;;;2.58;1.60;;;7.60;99.90;;;;;;5093388;28;20033;-82
2024/01/31 03:05:56;;;;;;;7.28;2.13;;;7.60;99.90;;;;;;5072465;28;20036;-83
2024/01/31 03:08:22;;;;;;;5.50;2.00;;;7.60;99.90;;;;;;5079527;28;20036;-82
2024/01/31 03:10:47;;;;;;;3.05;1.75;;;7.60;99.90;;;;;;5039761;28;20446;-82
2024/01/31 03:13:16;;;;;;;3.83;1.40;;;7.60;99.90;;;;;;5073593;28;20369;-83
2024/01/31 03:15:41;;;;;;;4.68;1.70;;;7.60;99.90;;;;;;5038744;28;20110;-83
2024/01/31 03:18:07;;;;;;;4.65;1.70;;;7.60;99.90;;;;;;5055020;28;20454;-83
2024/01/31 03:20:35;;;;;;;4.80;2.00;;;7.60;99.90;;;;;;5038710;28;20120;-82
2024/01/31 03:23:01;;;;;;;4.70;1.58;;;7.60;99.90;;;;;;5071735;28;20120;-83
2024/01/31 03:25:27;;;;;;;3.67;1.70;;;7.60;99.90;;;;;;5055089;28;20035;-83
2024/01/31 03:27:53;;;;;;;4.25;1.70;;;7.60;99.90;;;;;;5058871;28;20056;-83
2024/01/31 03:30:19;;;;;;;4.28;1.90;;;7.50;99.90;;;;;;5059047;28;20025;-83
2024/01/31 03:32:46;;;;;;;5.78;1.65;;;7.50;99.90;;;;;;5075820;28;20107;-83
2024/01/31 03:35:12;;;;;;;3.90;1.85;;;7.50;99.90;;;;;;5059013;28;20039;-83
2024/01/31 03:37:37;;;;;;;3.50;1.60;;;7.50;99.90;;;;;;5075175;28;20037;-83
2024/01/31 03:40:07;;;;;;;2.70;1.50;;;7.50;99.90;;;;;;5076630;28;20108;-83
2024/01/31 03:42:32;;;;;;;4.43;1.83;;;7.50;99.90;;;;;;5058930;28;20352;-83
2024/01/31 03:44:58;;;;;;;4.53;1.55;;;7.50;99.90;;;;;;5042010;28;20044;-82
2024/01/31 03:47:24;;;;;;;3.63;1.42;;;7.50;99.90;;;;;;5075294;28;20111;-82
2024/01/31 03:49:51;;;;;;;4.65;1.40;;;7.50;99.90;;;;;;5075528;28;20029;-83
2024/01/31 03:52:17;;;;;;;4.35;1.60;;;7.50;99.90;;;;;;5058550;28;20361;-83
2024/01/31 03:54:43;;;;;;;3.30;1.40;;;7.50;99.90;;;;;;5058672;28;20380;-83
2024/01/31 03:57:09;;;;;;;4.32;1.50;;;7.50;99.90;;;;;;5074814;28;20107;-83
2024/01/31 03:59:35;;;;;;;2.55;1.38;;;7.50;99.90;;;;;;5058453;28;20123;-83
2024/01/31 04:02:00;;;;;;;3.75;1.40;;;7.50;99.90;;;;;;5058451;28;20408;-83
2024/01/31 04:04:26;;;;;;;5.85;1.40;;;7.50;99.90;;;;;;5041729;28;20461;-83
2024/01/31 04:06:51;;;;;;;4.20;1.20;;;7.50;99.90;;;;;;5041866;28;20087;-82
2024/01/31 04:09:17;;;;;;;8.30;1.40;;;7.50;99.90;;;;;;5076650;28;20112;-83
2024/01/31 04:11:43;;;;;;;3.97;1.30;;;7.50;99.90;;;;;;5058749;28;20056;-83
2024/01/31 04:14:08;;;;;;;4.00;1.55;;;7.50;99.90;;;;;;5075336;28;20036;-83
2024/01/31 04:16:34;;;;;;;5.30;1.85;;;7.50;99.90;;;;;;5078406;28;20024;-83
2024/01/31 04:19:00;;;;;;;4.47;1.27;;;7.50;99.90;;;;;;5078470;28;20486;-83
2024/01/31 04:21:25;;;;;;;2.92;1.25;;;7.50;99.90;;;;;;5061639;28;20613;-82
2024/01/31 04:23:51;;;;;;;4.57;1.17;;;7.50;99.90;;;;;;5046310;28;20374;-83
2024/01/31 04:26:17;;;;;;;3.78;1.30;;;7.50;99.90;;;;;;5109298;28;20051;-83
2024/01/31 04:28:42;;;;;;;4.13;1.80;;;7.60;99.90;;;;;;5086180;28;20031;-83
2024/01/31 04:31:14;;;;;;;3.08;1.30;;;7.50;99.90;;;;;;5084947;28;20024;-83
2024/01/31 04:33:40;;;;;;;4.95;1.25;;;7.50;99.90;;;;;;5084199;28;20100;-83
2024/01/31 04:36:06;;;;;;;4.38;1.50;;;7.50;99.90;;;;;;5066154;28;20059;-84
2024/01/31 04:38:32;;;;;;;5.20;1.50;;;7.50;99.90;;;;;;5094942;28;20039;-82
2024/01/31 04:40:57;;;;;;;2.97;1.30;;;7.50;99.90;;;;;;5077909;28;20055;-83
2024/01/31 04:43:24;;;;;;;3.70;1.70;;;7.50;99.90;;;;;;5095787;28;20043;-83
2024/01/31 04:45:49;;;;;;;2.47;1.25;;;7.50;99.90;;;;;;5044490;28;20024;-82
2024/01/31 04:48:15;;;;;;;3.08;1.50;;;7.50;99.90;;;;;;5060776;28;20375;-82
2024/01/31 04:50:41;;;;;;;1.85;1.10;;;7.60;99.90;;;;;;5077743;28;20028;-82
2024/01/31 04:53:06;;;;;;;2.63;1.23;;;7.50;99.90;;;;;;5077279;28;20029;-82
2024/01/31 04:55:32;;;;;;;8.90;1.88;;;7.60;99.90;;;;;;5044268;28;20051;-82
2024/01/31 04:57:58;;;;;;;2.60;1.45;;;7.60;99.90;;;;;;5095269;28;20024;-82
2024/01/31 05:00:23;;;;;;;2.38;1.23;;;7.60;99.90;;;;;;5060868;28;20085;-83
2024/01/31 05:02:52;;;;;;;3.75;1.30;;;7.50;99.90;;;;;;5095500;28;20081;-83
2024/01/31 05:05:19;;;;;;;3.65;1.48;;;7.50;99.90;;;;;;5077160;28;20024;-82
2024/01/31 05:07:45;;;;;;;4.18;1.65;;;7.50;99.90;;;;;;5077170;28;20032;-83
2024/01/31 05:10:12;;;;;;;5.55;1.45;;;7.50;99.90;;;;;;5060651;28;20066;-83
2024/01/31 05:12:37;;;;;;;3.13;1.77;;;7.50;99.90;;;;;;5076903;28;20016;-83
2024/01/31 05:15:04;;;;;;;5.30;2.63;;;7.50;99.90;;;;;;5056658;28;20075;-83
2024/01/31 05:17:30;;;;;;;3.30;1.73;;;7.50;99.90;;;;;;5073248;28;20029;-84
2024/01/31 05:19:55;;;;;;;3.25;1.33;;;7.50;99.90;;;;;;5073537;28;20037;-83
2024/01/31 05:22:21;;;;;;;2.75;1.30;;;7.50;99.90;;;;;;5074509;28;20369;-83
2024/01/31 05:24:47;;;;;;;4.45;1.55;;;7.50;99.90;;;;;;5040069;28;20033;-83
2024/01/31 05:27:12;;;;;;;4.10;1.67;;;7.50;99.90;;;;;;5056798;28;20029;-82
2024/01/31 05:29:38;;;;;;;6.68;1.98;;;7.50;99.90;;;;;;5073372;28;20035;-83
2024/01/31 05:32:04;;;;;;;6.20;2.20;;;7.50;99.90;;;;;;5039972;28;20025;-84
2024/01/31 05:34:30;;;;;;;5.57;1.67;;;7.50;99.90;;;;;;5040095;28;20024;-84
2024/01/31 05:36:55;;;;;;;4.85;1.15;;;7.50;99.90;;;;;;5072664;28;20367;-83
2024/01/31 05:39:21;;;;;;;2.83;1.40;;;7.50;99.90;;;;;;5072498;28;20446;-83
2024/01/31 05:41:47;;;;;;;3.17;1.70;;;7.50;99.90;;;;;;5073111;28;20032;-83
2024/01/31 05:44:12;;;;;;;2.25;1.40;;;7.50;99.90;;;;;;5056119;28;20033;-82
2024/01/31 05:46:38;;;;;;;6.05;1.60;;;7.50;99.90;;;;;;5072953;28;20033;-82
2024/01/31 05:49:05;;;;;;;2.08;1.20;;;7.50;99.90;;;;;;5073138;28;20410;-83
2024/01/31 05:51:31;;;;;;;2.60;1.27;;;7.50;99.90;;;;;;5074209;28;20039;-84
2024/01/31 05:53:57;;;;;;;3.95;1.05;;;7.50;99.90;;;;;;5085047;28;20016;-83
2024/01/31 05:56:23;;;;;;;5.75;1.20;;;7.50;99.90;;;;;;5079500;28;20066;-81
2024/01/31 05:58:49;;;;;;;4.05;1.40;;;7.50;99.90;;;;;;5097941;28;20044;-83
2024/01/31 06:01:15;;;;;;;3.10;1.75;;;7.50;99.90;;;;;;5087034;28;20077;-84
2024/01/31 06:03:40;;;;;;;2.97;1.30;;;7.50;99.90;;;;;;5075110;28;20035;-84
2024/01/31 06:06:06;;;;;;;4.15;1.25;;;7.50;99.90;;;;;;5073672;28;20039;-83
2024/01/31 06:08:33;;;;;;;3.47;1.40;;;7.50;99.90;;;;;;5056064;28;20044;-84
2024/01/31 06:11:03;;;;;;;4.78;1.80;;;7.50;99.90;;;;;;5072442;28;20020;-83
2024/01/31 06:13:32;;;;;;;5.82;1.30;;;7.50;99.90;;;;;;5040613;28;20487;-84
2024/01/31 06:15:58;;;;;;;2.22;1.20;;;7.50;99.90;;;;;;5055421;28;20048;-83
2024/01/31 06:18:24;;;;;;;4.32;1.48;;;7.50;99.90;;;;;;5072393;28;20067;-82
2024/01/31 06:20:50;;;;;;;3.88;1.58;;;7.50;99.90;;;;;;5072715;28;20032;-84
2024/01/31 06:23:16;;;;;;;3.13;1.40;;;7.50;99.90;;;;;;5056060;28;20024;-83
2024/01/31 06:25:41;;;;;;;4.65;1.58;;;7.60;99.90;;;;;;5072692;28;20086;-83
2024/01/31 06:28:07;;;;;;;6.28;1.80;;;7.50;99.90;;;;;;5072744;28;20036;-84
2024/01/31 06:30:44;;;;;;;2.38;1.40;;;7.50;99.90;;;;;;5055798;28;20404;-83
2024/01/31 06:33:11;;;;;;;3.70;1.85;;;7.50;99.90;;;;;;5074124;28;20031;-84
2024/01/31 06:35:38;;;;;;;5.20;1.80;;;7.50;99.90;;;;;;5072123;28;20023;-84
2024/01/31 06:38:05;;;;;;;2.63;1.50;;;7.50;99.90;;;;;;5072474;28;20028;-84
2024/01/31 06:40:30;;;;;;;4.70;2.00;;;7.60;99.90;;;;;;5072575;28;20029;-85
2024/01/31 06:42:59;;;;;;;4.82;1.80;;;7.50;99.90;;;;;;5055982;28;20029;-84
2024/01/31 06:45:25;;;;;;;4.43;1.90;;;7.60;99.90;;;;;;5055928;28;20036;-83
2024/01/31 06:47:51;;;;;;;2.30;1.80;;;7.60;99.90;;;;;;5056064;28;20028;-84
2024/01/31 06:50:17;;;;;;;2.53;2.20;;;7.60;99.90;;;;;;5072233;28;20024;-84
2024/01/31 06:52:43;;;;;;;3.67;2.15;;;7.60;99.90;;;;;;5055519;28;20029;-84
2024/01/31 06:55:09;;;;;;;3.70;2.33;;;7.60;99.90;;;;;;5055742;28;20341;-84
2024/01/31 06:57:37;;;;;;;3.10;2.03;;;7.60;99.90;;;;;;5055175;28;20098;-84
2024/01/31 07:00:04;;;;;;;2.90;2.20;;;7.60;99.90;;;;;;5055751;28;20472;-84
2024/01/31 07:02:30;;;;;;;3.88;2.45;;;7.60;99.90;;;;;;5058652;28;20025;-84
2024/01/31 07:04:56;;;;;;;3.58;2.10;;;7.60;99.90;;;;;;5076377;28;20029;-84
2024/01/31 07:07:21;;;;;;;4.35;2.10;;;7.60;99.90;;;;;;5043052;28;20086;-84
2024/01/31 07:09:47;;;;;;;4.22;2.55;;;7.60;99.90;;;;;;5059372;28;20120;-84
2024/01/31 07:12:13;;;;;;;4.82;2.33;;;7.50;99.90;;;;;;5076406;28;20033;-84
2024/01/31 07:14:41;;;;;;;5.35;2.20;;;7.50;99.90;;;;;;5062660;28;20072;-84
2024/01/31 07:17:07;;;;;;;2.63;2.38;;;7.50;99.90;;;;;;5070838;28;20028;-84
2024/01/31 07:19:35;;;;;;;5.45;2.47;;;7.60;99.90;;;;;;5086476;28;20024;-83
2024/01/31 07:22:01;;;;;;;5.20;2.67;;;7.60;99.90;;;;;;5085940;28;20058;-84
2024/01/31 07:24:27;;;;;;;4.90;2.50;;;7.60;99.90;;;;;;5119347;28;20048;-83
2024/01/31 07:26:53;;;;;;;5.47;2.75;;;7.60;99.90;;;;;;5071042;28;20036;-84
2024/01/31 07:29:19;;;;;;;3.15;2.30;;;7.60;99.90;;;;;;5046665;28;20036;-84
2024/01/31 07:31:45;;;;;;;3.95;2.70;;;7.60;99.90;;;;;;5062684;28;20379;-84
2024/01/31 07:34:13;;;;;;;3.75;2.63;;;7.60;99.90;;;;;;5079927;28;20028;-84
2024/01/31 07:36:39;;;;;;;5.43;2.40;;;7.60;99.90;;;;;;5063043;28;20016;-84
2024/01/31 07:39:04;;;;;;;3.72;2.33;;;7.60;99.90;;;;;;5078860;28;20064;-84
2024/01/31 07:41:30;;;;;;;6.63;2.58;;;7.70;99.90;;;;;;5061989;28;20032;-83
2024/01/31 07:43:56;;;;;;;3.38;2.10;;;7.60;99.90;;;;;;5061929;28;20115;-84
2024/01/31 07:46:22;;;;;;;2.65;2.30;;;7.60;99.90;;;;;;5062109;28;20027;-84
2024/01/31 07:48:47;;;;;;;3.67;2.25;;;7.60;99.90;;;;;;5061497;28;20035;-84
2024/01/31 07:51:13;;;;;;;4.68;2.50;;;7.70;99.90;;;;;;5061902;28;20028;-84
2024/01/31 07:53:39;;;;;;;5.13;2.60;;;7.70;99.90;;;;;;5078378;28;20090;-84
2024/01/31 07:56:05;;;;;;;4.43;2.25;;;7.70;99.90;;;;;;5077817;28;20028;-85
2024/01/31 07:58:31;;;;;;;4.30;2.47;;;7.60;99.90;;;;;;5078183;28;20416;-84
2024/01/31 08:00:57;;;;;;;3.83;2.38;;;7.60;99.90;;;;;;5077809;28;20517;-84
2024/01/31 08:03:25;;;;;;;4.65;2.70;;;7.60;99.90;;;;;;5044931;28;20123;-85
2024/01/31 08:05:51;;;;;;;4.57;2.95;;;7.70;99.90;;;;;;5061469;28;20043;-84
2024/01/31 08:08:16;;;;;;;4.55;2.40;;;7.60;99.90;;;;;;5061707;28;20028;-85
2024/01/31 08:10:42;;;;;;;6.15;2.90;;;7.70;99.90;;;;;;5077436;28;20051;-85
2024/01/31 08:13:08;;;;;;;4.55;2.92;;;7.70;99.90;;;;;;5076634;28;20085;-85
2024/01/31 08:15:34;;;;;;;6.15;2.92;;;7.70;99.90;;;;;;5077667;28;20047;-85
2024/01/31 08:18:01;;;;;;;4.38;3.10;;;7.70;99.90;;;;;;5096092;28;20020;-85
2024/01/31 08:20:27;;;;;;;4.95;3.05;;;7.70;99.90;;;;;;5061329;28;20057;-85
2024/01/31 08:22:53;;;;;;;5.90;2.72;;;7.70;99.90;;;;;;5095908;28;20035;-84
2024/01/31 08:25:19;;;;;;;4.93;2.95;;;7.70;99.90;;;;;;5077864;28;20119;-84
2024/01/31 08:27:44;;;;;;;5.10;2.97;;;7.70;99.90;;;;;;5044674;28;20052;-84
2024/01/31 08:30:11;;;;;;;5.05;3.08;;;7.70;99.90;;;;;;5060773;28;20115;-84
2024/01/31 08:32:37;;;;;;;5.53;3.50;;;7.80;99.90;;;;;;5044713;28;20036;-83
2024/01/31 08:35:03;;;;;;;4.63;2.70;;;7.70;99.90;;;;;;5061387;28;20024;-84
2024/01/31 08:37:30;;;;;;;4.13;2.88;;;7.80;99.90;;;;;;5077859;28;20059;-84
2024/01/31 08:39:56;;;;;;;3.58;2.58;;;7.80;99.90;;;;;;5061478;28;20035;-84
2024/01/31 08:42:22;;;;;;;5.13;3.03;;;7.80;99.90;;;;;;5079237;28;20028;-84
2024/01/31 08:44:47;;;;;;;4.97;3.03;;;7.80;99.90;;;;;;5061802;28;20031;-83
2024/01/31 08:47:13;;;;;;;6.88;3.63;;;7.80;99.90;;;;;;5085111;28;20032;-84
2024/01/31 08:49:38;;;;;;;5.90;3.22;;;7.80;99.90;;;;;;5067419;28;20049;-82
2024/01/31 08:52:05;;;;;;;6.90;3.40;;;7.80;99.90;;;;;;5081966;28;20031;-84
2024/01/31 08:54:30;;;;;;;4.78;3.55;;;7.90;99.90;;;;;;5061005;28;20086;-84
2024/01/31 08:56:56;;;;;;;6.13;4.00;;;7.90;99.90;;;;;;5044509;28;20028;-84
2024/01/31 08:59:22;;;;;;;6.95;3.88;;;7.90;99.90;;;;;;5060936;28;20085;-84
2024/01/31 09:01:48;;;;;;;6.18;3.67;;;7.90;99.90;;;;;;5060588;28;20043;-84
2024/01/31 09:04:14;;;;;;;6.05;4.13;;;7.90;99.90;;;;;;5060695;28;20028;-84
2024/01/31 09:06:42;;;;;;;5.13;4.00;;;7.90;99.90;;;;;;5095320;28;20024;-82
2024/01/31 09:09:08;;;;;;;8.77;4.38;;;8.00;99.90;;;;;;5077704;28;20027;-84
2024/01/31 09:11:34;;;;;;;5.63;4.22;;;8.00;99.90;;;;;;5060484;28;20032;-84
2024/01/31 09:14:00;;;;;;;7.47;4.95;;;8.00;99.90;;;;;;5043552;28;20032;-85
2024/01/31 09:16:25;;;;;;;6.18;3.90;;;8.00;99.90;;;;;;5077019;28;20080;-84
2024/01/31 09:18:51;;;;;;;7.03;4.20;;;8.00;99.90;;;;;;5043759;28;20463;-84
2024/01/31 09:21:27;;;;;;;9.07;4.20;;;8.00;99.90;;;;;;5043654;28;20067;-84
2024/01/31 09:23:54;;;;;;;6.18;4.30;;;8.10;99.90;;;;;;5076446;28;20028;-85
2024/01/31 09:26:19;;;;;;;8.23;4.78;;;8.00;99.90;;;;;;5043723;28;20024;-85
2024/01/31 09:28:45;;;;;;;6.88;4.43;;;8.10;99.90;;;;;;5076722;28;20031;-84
2024/01/31 09:31:18;;;;;;;8.25;5.10;;;8.10;99.90;;;;;;5076478;28;20047;-85
2024/01/31 09:33:44;;;;;;;8.75;5.07;;;8.20;99.90;;;;;;5060844;28;20032;-82
2024/01/31 09:36:09;;;;;;;10.80;5.10;;;8.20;99.90;;;;;;5060142;28;20043;-84
2024/01/31 09:38:35;;;;;;;7.43;4.55;;;8.20;99.90;;;;;;5076440;28;20052;-85
2024/01/31 09:41:01;;;;;;;7.80;4.72;;;8.20;99.90;;;;;;5059742;28;20032;-84
2024/01/31 09:43:26;;;;;;;9.30;5.05;;;8.30;99.90;;;;;;5060173;28;20040;-84
2024/01/31 09:45:55;;;;;;;6.55;4.93;;;8.30;99.90;;;;;;5059587;28;20089;-84
2024/01/31 09:48:20;;;;;;;9.55;5.00;;;8.40;99.90;;;;;;5076482;28;20055;-84
2024/01/31 09:50:46;;;;;;;7.55;5.00;;;8.40;99.90;;;;;;5059922;28;20434;-84
2024/01/31 09:53:14;;;;;;;5.95;4.88;;;8.40;99.90;;;;;;5076392;28;20044;-84
2024/01/31 09:55:42;;;;;;;13.30;6.03;;;8.40;99.90;;;;;;5059981;28;20031;-86
2024/01/31 09:58:07;;;;;;;9.43;6.50;;;8.50;99.90;;;;;;5094567;28;20036;-85
2024/01/31 10:00:34;;;;;;;10.20;6.22;;;8.50;99.90;;;;;;5059500;28;20387;-84
2024/01/31 10:02:59;;;;;;;11.13;6.60;;;8.50;99.90;;;;;;5059736;28;20035;-84
2024/01/31 10:05:25;;;;;;;10.77;6.80;;;8.50;99.90;;;;;;5042382;28;20387;-84
2024/01/31 10:08:00;;;;;;;9.98;6.60;;;8.60;99.90;;;;;;5043371;28;20494;-84
2024/01/31 10:10:27;;;;;;;12.77;7.72;;;8.60;99.90;;;;;;5082362;28;20028;-84
2024/01/31 10:12:53;;;;;;;12.52;8.30;;;8.60;99.90;;;;;;5084671;28;20021;-83
2024/01/31 10:15:19;;;;;;;14.15;8.95;;;8.60;99.90;;;;;;5083197;28;20047;-84
2024/01/31 10:17:44;;;;;;;16.52;9.00;;;8.70;99.90;;;;;;5083259;28;20012;-84
2024/01/31 10:20:12;;;;;;;15.57;9.63;;;8.70;99.90;;;;;;5070021;28;20163;-84
2024/01/31 10:22:38;;;;;;;15.82;10.00;;;8.70;99.90;;;;;;5094570;28;20261;-85
2024/01/31 10:25:05;;;;;;;19.02;10.07;;;8.70;99.90;;;;;;5076064;28;20024;-84
2024/01/31 10:27:34;;;;;;;16.13;11.00;;;8.70;99.90;;;;;;5042872;28;20032;-85
2024/01/31 10:30:03;;;;;;;19.30;11.75;;;8.70;99.90;;;;;;5075463;28;20020;-84
2024/01/31 10:32:29;;;;;;;17.88;11.85;;;8.70;99.90;;;;;;5075478;28;20012;-84
2024/01/31 10:34:57;;;;;;;16.02;12.18;;;8.70;99.90;;;;;;5042106;28;20020;-83
2024/01/31 10:37:26;;;;;;;21.80;13.00;;;8.80;99.90;;;;;;5075106;28;20024;-84
2024/01/31 10:39:53;;;;;;;18.75;12.55;;;8.70;99.90;;;;;;5059188;28;20028;-84
2024/01/31 10:42:21;;;;;;;22.17;12.57;;;8.80;99.90;;;;;;5075672;28;20032;-84
2024/01/31 10:44:48;;;;;;;18.30;13.13;;;8.80;99.90;;;;;;5075620;28;20043;-84
2024/01/31 10:47:14;;;;;;;23.38;14.00;;;8.80;99.90;;;;;;5076006;28;20395;-84
2024/01/31 10:49:39;;;;;;;19.25;13.70;;;8.80;99.90;;;;;;5075947;28;20031;-85
2024/01/31 10:52:10;;;;;;;21.92;14.80;;;8.70;99.90;;;;;;5075710;28;20059;-84
2024/01/31 10:54:39;;;;;;;22.33;15.02;;;8.80;99.90;;;;;;5075829;28;20069;-84
2024/01/31 10:57:07;;;;;;;26.02;15.20;;;8.80;99.90;;;;;;5075697;28;20020;-84
2024/01/31 10:59:36;;;;;;;25.90;16.35;;;8.80;99.90;;;;;;5094042;28;20240;-84
2024/01/31 11:02:03;;;;;;;24.90;15.88;;;8.80;99.90;;;;;;5075604;28;20032;-84
2024/01/31 11:04:28;;;;;;;24.85;15.48;;;8.80;99.90;;;;;;5094214;28;20016;-84
2024/01/31 11:06:59;;;;;;;24.05;15.27;;;8.80;99.90;;;;;;5093376;28;20333;-84
2024/01/31 11:09:25;;;;;;;25.33;15.90;;;8.80;99.90;;;;;;5076115;28;20043;-84
2024/01/31 11:12:11;;;;;;;26.10;16.67;;;8.90;99.90;;;;;;5076732;28;20112;-83
2024/01/31 11:14:40;;;;;;;27.27;17.05;;;8.90;99.90;;;;;;5075129;28;20024;-84
2024/01/31 11:17:09;;;;;;;26.85;16.65;;;8.90;99.90;;;;;;5059378;28;20163;-83
2024/01/31 11:19:40;;;;;;;26.60;16.70;;;8.90;99.90;;;;;;5076299;28;20036;-84
2024/01/31 11:22:07;;;;;;;25.92;16.38;;;8.90;99.90;;;;;;5075265;28;20521;-84
2024/01/31 11:24:33;;;;;;;22.08;15.65;;;8.90;99.90;;;;;;5075160;28;20032;-83
2024/01/31 11:27:01;;;;;;;23.40;15.90;;;9.00;99.90;;;;;;5075317;28;20408;-84
2024/01/31 11:29:27;;;;;;;27.50;16.35;;;9.00;99.90;;;;;;5075231;28;20024;-84
2024/01/31 11:31:54;;;;;;;23.05;15.27;;;9.00;99.90;;;;;;5075984;28;20137;-84
2024/01/31 11:34:19;;;;;;;22.40;14.80;;;9.00;99.90;;;;;;5061094;28;20047;-84
2024/01/31 11:36:45;;;;;;;23.92;15.68;;;9.00;99.90;;;;;;5064799;28;20024;-82
2024/01/31 11:39:11;;;;;;;25.00;15.95;;;9.00;99.90;;;;;;5113090;28;20028;-82
2024/01/31 11:41:37;;;;;;;23.50;15.00;;;9.10;99.90;;;;;;5081872;28;20028;-82
2024/01/31 11:44:06;;;;;;;24.75;15.52;;;9.10;99.90;;;;;;5063236;28;20024;-82
2024/01/31 11:46:31;;;;;;;24.85;16.05;;;9.10;99.90;;;;;;5074972;28;20032;-82
2024/01/31 11:48:57;;;;;;;23.83;16.63;;;9.10;99.90;;;;;;5090693;28;20115;-82
2024/01/31 11:51:23;;;;;;;28.63;17.63;;;9.10;99.90;;;;;;5061814;28;20024;-83
2024/01/31 11:53:48;;;;;;;26.35;17.70;;;9.10;99.90;;;;;;5061923;28;20036;-83
2024/01/31 11:56:14;;;;;;;24.38;16.95;;;9.10;99.90;;;;;;5096460;28;20031;-83
2024/01/31 11:58:40;;;;;;;25.92;16.40;;;9.10;99.90;;;;;;5061153;28;20479;-83
2024/01/31 12:01:06;;;;;;;24.95;16.27;;;9.10;99.90;;;;;;5045121;28;20043;-83
2024/01/31 12:03:31;;;;;;;24.77;16.42;;;9.10;99.90;;;;;;5061653;28;20035;-83
2024/01/31 12:06:02;;;;;;;24.15;16.20;;;9.10;99.90;;;;;;5044759;28;20032;-84
2024/01/31 12:08:31;;;;;;;;;;;9.10;99.90;;;;;;5080174;28;20036;-83
2024/01/31 12:10:57;;;;;;;24.17;15.32;;;9.10;99.90;;;;;;5078348;28;19904;-84
2024/01/31 12:13:22;;;;;;;22.42;14.20;;;9.10;99.90;;;;;;5078088;28;20058;-83
2024/01/31 12:15:48;;;;;;;20.60;14.25;;;9.10;99.90;;;;;;5077569;28;20051;-84
2024/01/31 12:18:15;;;;;;;18.58;13.45;;;9.10;99.90;;;;;;5095892;28;20032;-84
2024/01/31 12:20:40;;;;;;;19.88;13.27;;;9.10;99.90;;;;;;5044788;28;20035;-84
2024/01/31 12:23:06;;;;;;;16.13;12.00;;;9.00;99.90;;;;;;5077749;28;20110;-83
2024/01/31 12:25:35;;;;;;;17.42;11.52;;;9.00;99.90;;;;;;5077645;28;20093;-83
2024/01/31 12:28:00;;;;;;;16.67;11.20;;;9.00;99.90;;;;;;5077754;28;20067;-83
2024/01/31 12:30:26;;;;;;;14.60;11.05;;;9.00;99.90;;;;;;5061060;28;20056;-84
2024/01/31 12:32:52;;;;;;;14.15;11.05;;;9.00;99.90;;;;;;5077850;28;20503;-83
2024/01/31 12:35:18;;;;;;;16.17;12.15;;;9.00;99.90;;;;;;5061031;28;20039;-83
2024/01/31 12:37:45;;;;;;;14.52;11.43;;;9.00;99.90;;;;;;5060739;28;20028;-83
2024/01/31 12:40:11;;;;;;;15.23;11.63;;;8.90;99.90;;;;;;5077276;28;20024;-83
2024/01/31 12:42:37;;;;;;;16.33;11.77;;;8.90;99.90;;;;;;5095342;28;20503;-83
2024/01/31 12:45:04;;;;;;;14.45;11.32;;;8.90;99.90;;;;;;5060764;28;20028;-84
2024/01/31 12:47:30;;;;;;;13.07;10.63;;;8.90;99.90;;;;;;5060721;28;20024;-83